createdAt,value
2022-08-06T04:00:31.272Z,1007.05
2022-08-06T04:05:31.201Z,1007.12
2022-08-06T04:10:34.489Z,1007.24
2022-08-06T04:15:31.099Z,1007.21
2022-08-06T04:20:41.511Z,1007.31
2022-08-06T04:25:32.031Z,1007.30
2022-08-06T04:30:31.973Z,1007.36
2022-08-06T04:36:05.302Z,1007.38
2022-08-06T04:40:35.567Z,1007.49
2022-08-06T04:46:17.838Z,1007.44
2022-08-06T04:50:31.797Z,1007.47
2022-08-06T04:55:34.673Z,1007.53
2022-08-06T05:00:35.031Z,1007.51
2022-08-06T05:05:31.586Z,1007.56
2022-08-06T05:10:30.531Z,1007.58
2022-08-06T05:15:31.441Z,1007.63
2022-08-06T05:20:30.399Z,1007.71
2022-08-06T05:25:30.374Z,1007.61
2022-08-06T05:30:31.308Z,1007.81
2022-08-06T05:35:41.341Z,1007.88
2022-08-06T05:40:34.553Z,1007.86
2022-08-06T05:45:30.154Z,1007.89
2022-08-06T05:50:31.088Z,1007.92
2022-08-06T05:55:38.536Z,1007.97
2022-08-06T06:00:42.327Z,1007.95
2022-08-06T06:06:03.878Z,1007.98
2022-08-06T06:10:33.571Z,1007.99
2022-08-06T06:15:59.317Z,1008.05
2022-08-06T06:20:58.454Z,1008.06
2022-08-06T06:25:30.826Z,1008.08
2022-08-06T06:30:39.402Z,1008.09
2022-08-06T06:35:32.785Z,1008.11
2022-08-06T06:40:29.597Z,1008.08
2022-08-06T06:46:07.436Z,1008.13
2022-08-06T06:50:29.447Z,1008.24
2022-08-06T06:55:52.262Z,1008.15
2022-08-06T07:00:45.595Z,1008.40
2022-08-06T07:06:02.699Z,1008.40
2022-08-06T07:10:30.258Z,1008.46
2022-08-06T07:15:29.207Z,1008.48
2022-08-06T07:20:29.365Z,1008.58
2022-08-06T07:25:29.070Z,1008.57
2022-08-06T07:30:29.109Z,1008.67
2022-08-06T07:35:28.970Z,1008.59
2022-08-06T07:40:29.967Z,1008.65
2022-08-06T07:45:32.375Z,1008.71
2022-08-06T07:50:29.805Z,1008.61
2022-08-06T07:55:31.544Z,1008.75
2022-08-06T08:00:29.703Z,1008.72
2022-08-06T08:05:39.035Z,1008.59
2022-08-06T08:10:29.729Z,1008.67
2022-08-06T08:15:28.546Z,1008.69
2022-08-06T08:20:30.450Z,1008.68
2022-08-06T08:25:39.890Z,1008.54
2022-08-06T08:30:29.460Z,1008.64
2022-08-06T08:35:28.328Z,1008.61
2022-08-06T08:40:29.275Z,1008.70
2022-08-06T08:45:33.604Z,1008.71
2022-08-06T08:50:28.221Z,1008.55
2022-08-06T08:57:11.342Z,1008.70
2022-08-06T09:00:29.142Z,1008.52
2022-08-06T09:05:28.011Z,1008.62
2022-08-06T09:10:28.961Z,1008.65
2022-08-06T09:15:27.903Z,1008.73
2022-08-06T09:20:27.846Z,1008.68
2022-08-06T09:25:27.810Z,1008.63
2022-08-06T09:30:30.419Z,1008.62
2022-08-06T09:35:43.849Z,1008.67
2022-08-06T09:40:28.703Z,1008.73
2022-08-06T09:45:42.568Z,1008.72
2022-08-06T09:50:28.522Z,1008.60
2022-08-06T09:55:27.500Z,1008.62
2022-08-06T10:00:27.424Z,1008.69
2022-08-06T10:05:29.934Z,1008.66
2022-08-06T10:10:34.129Z,1008.72
2022-08-06T10:15:58.138Z,1008.75
2022-08-06T10:20:28.269Z,1008.64
2022-08-06T10:25:29.426Z,1008.76
2022-08-06T10:30:27.100Z,1008.74
2022-08-06T10:35:27.159Z,1008.78
2022-08-06T10:40:30.479Z,1008.71
2022-08-06T10:45:26.975Z,1008.59
2022-08-06T10:50:38.470Z,1008.61
2022-08-06T10:55:34.283Z,1008.74
2022-08-06T11:00:27.773Z,1008.51
2022-08-06T11:05:26.711Z,1008.54
2022-08-06T11:10:27.128Z,1008.54
2022-08-06T11:15:26.605Z,1008.39
2022-08-06T11:20:26.551Z,1008.44
2022-08-06T11:25:27.319Z,1008.49
2022-08-06T11:30:27.024Z,1008.45
2022-08-06T11:35:26.383Z,1008.40
2022-08-06T11:40:26.404Z,1008.43
2022-08-06T11:46:18.896Z,1008.39
2022-08-06T11:50:27.843Z,1008.41
2022-08-06T11:55:27.108Z,1008.37
2022-08-06T12:00:26.113Z,1008.32
2022-08-06T12:05:26.056Z,1008.34
2022-08-06T12:10:29.334Z,1008.23
2022-08-06T12:16:00.151Z,1008.28
2022-08-06T12:20:35.934Z,1008.12
2022-08-06T12:25:26.827Z,1008.21
2022-08-06T12:30:35.950Z,1008.20
2022-08-06T12:35:26.750Z,1008.03
2022-08-06T12:40:25.723Z,1008.16
2022-08-06T12:46:05.029Z,1008.01
2022-08-06T12:50:30.293Z,1008.02
2022-08-06T12:55:25.519Z,1008.01
2022-08-06T13:00:29.600Z,1007.91
2022-08-06T13:05:25.417Z,1007.90
2022-08-06T13:10:34.278Z,1007.81
2022-08-06T13:15:26.303Z,1007.82
2022-08-06T13:20:32.928Z,1007.80
2022-08-06T13:25:48.217Z,1007.80
2022-08-06T13:30:34.191Z,1007.73
2022-08-06T13:35:26.087Z,1007.75
2022-08-06T13:40:31.966Z,1007.63
2022-08-06T13:45:56.579Z,1007.71
2022-08-06T13:50:26.093Z,1007.61
2022-08-06T13:55:26.000Z,1007.58
2022-08-06T14:00:24.804Z,1007.43
2022-08-06T14:05:24.768Z,1007.48
2022-08-06T14:10:27.545Z,1007.43
2022-08-06T14:15:26.598Z,1007.34
2022-08-06T14:20:25.657Z,1007.37
2022-08-06T14:25:28.494Z,1007.41
2022-08-06T14:30:31.898Z,1007.38
2022-08-06T14:35:26.064Z,1007.37
2022-08-06T14:40:32.583Z,1007.31
2022-08-06T14:45:24.336Z,1007.33
2022-08-06T14:50:37.980Z,1007.16
2022-08-06T14:55:25.230Z,1007.19
2022-08-06T15:00:33.049Z,1007.16
2022-08-06T15:05:42.685Z,1007.22
2022-08-06T15:10:27.845Z,1007.16
2022-08-06T15:15:36.119Z,1007.10
2022-08-06T15:20:25.997Z,1007.03
2022-08-06T15:26:01.404Z,1006.95
2022-08-06T15:30:25.583Z,1006.97
2022-08-06T15:35:38.748Z,1006.88
2022-08-06T15:40:29.652Z,1006.90
2022-08-06T15:45:50.101Z,1006.89
2022-08-06T15:50:36.188Z,1006.83
2022-08-06T15:55:24.575Z,1006.75
2022-08-06T16:00:24.520Z,1006.84
2022-08-06T16:05:32.526Z,1006.78
2022-08-06T16:10:25.984Z,1006.79
2022-08-06T16:15:24.356Z,1006.70
2022-08-06T16:20:24.497Z,1006.79
2022-08-06T16:25:23.850Z,1006.79
2022-08-06T16:30:24.190Z,1006.83
2022-08-06T16:35:23.134Z,1006.80
2022-08-06T16:40:24.686Z,1006.72
2022-08-06T16:45:23.494Z,1006.69
2022-08-06T16:50:27.223Z,1006.68
2022-08-06T16:55:24.292Z,1006.57
2022-08-06T17:00:59.573Z,1006.67
2022-08-06T17:05:23.817Z,1006.58
2022-08-06T17:10:25.602Z,1006.58
2022-08-06T17:15:35.099Z,1006.53
2022-08-06T17:20:23.671Z,1006.58
2022-08-06T17:25:22.594Z,1006.52
2022-08-06T17:30:22.553Z,1006.47
2022-08-06T17:35:22.502Z,1006.52
2022-08-06T17:45:23.398Z,1006.56
2022-08-06T17:50:22.347Z,1006.57
2022-08-06T17:55:23.287Z,1006.54
2022-08-06T18:00:33.548Z,1006.57
2022-08-06T18:05:36.571Z,1006.60
2022-08-06T18:10:28.962Z,1006.51
2022-08-06T18:15:23.069Z,1006.64
2022-08-06T18:20:28.346Z,1006.54
2022-08-06T18:25:22.978Z,1006.68
2022-08-06T18:30:36.699Z,1006.72
2022-08-06T18:35:22.856Z,1006.74
2022-08-06T18:40:38.494Z,1006.68
2022-08-06T18:45:22.761Z,1006.61
2022-08-06T18:50:21.688Z,1006.69
2022-08-06T18:55:53.900Z,1006.72
2022-08-06T19:00:23.723Z,1006.76
2022-08-06T19:05:26.781Z,1006.73
2022-08-06T19:10:22.474Z,1006.87
2022-08-06T19:15:24.244Z,1006.85
2022-08-06T19:20:23.845Z,1006.88
2022-08-06T19:25:22.316Z,1006.93
2022-08-06T19:30:41.379Z,1006.94
2022-08-06T19:36:07.575Z,1007.02
2022-08-06T19:40:22.198Z,1007.04
2022-08-06T19:45:21.085Z,1007.10
2022-08-06T19:50:22.041Z,1007.02
2022-08-06T19:56:08.763Z,1007.08
2022-08-06T20:00:55.898Z,1007.14
2022-08-06T20:05:21.875Z,1007.10
2022-08-06T20:10:35.740Z,1007.08
2022-08-06T20:15:28.427Z,1007.10
2022-08-06T20:20:28.174Z,1007.24
2022-08-06T20:25:23.791Z,1007.17
2022-08-06T20:30:20.603Z,1007.22
2022-08-06T20:35:20.552Z,1007.15
2022-08-06T20:40:20.675Z,1007.28
2022-08-06T20:45:56.593Z,1007.25
2022-08-06T20:50:21.368Z,1007.29
2022-08-06T20:55:21.331Z,1007.21
2022-08-06T21:00:24.342Z,1007.21
2022-08-06T21:05:23.665Z,1007.22
2022-08-06T21:10:20.160Z,1007.20
2022-08-06T21:15:42.533Z,1007.27
2022-08-06T21:20:23.416Z,1007.30
2022-08-06T21:25:19.988Z,1007.24
2022-08-06T21:30:30.012Z,1007.23
2022-08-06T21:35:20.916Z,1007.23
2022-08-06T21:40:28.877Z,1007.24
2022-08-06T21:45:20.780Z,1007.25
2022-08-06T21:50:25.138Z,1007.20
2022-08-06T21:56:38.087Z,1007.22
2022-08-06T22:00:20.614Z,1007.19
2022-08-06T22:06:17.356Z,1007.09
2022-08-06T22:10:31.669Z,1007.20
2022-08-06T22:15:20.451Z,1007.12
2022-08-06T22:20:21.675Z,1007.15
2022-08-06T22:25:20.403Z,1007.10
2022-08-06T22:30:19.290Z,1007.04
2022-08-06T22:35:22.835Z,1007.09
2022-08-06T22:40:20.180Z,1007.08
2022-08-06T22:45:47.731Z,1007.04
2022-08-06T22:50:20.083Z,1006.99
2022-08-06T22:55:20.006Z,1006.94
2022-08-06T23:00:19.331Z,1006.99
2022-08-06T23:05:18.926Z,1006.92
2022-08-06T23:10:18.841Z,1006.95
2022-08-06T23:15:30.496Z,1006.87
2022-08-06T23:20:26.278Z,1006.89
2022-08-06T23:26:01.236Z,1006.82
